Time;durP1;ratioP1;P1;durP2;ratioP2;P2;SDS_P1;SDS_P2;PMS_P1;PMS_P2;Temp;Humidity;BMP_temperature;BMP_pressure;BME280_temperature;BME280_humidity;BME280_pressure;Samples;Min_cycle;Max_cycle;Signal;HPM_P1;HPM_P2
2022/05/19 00:03:24;;;;;;;98.18;50.17;;;;;;;17.90;79.87;101628.63;5093085;28;20097;-45
2022/05/19 00:05:49;;;;;;;102.50;51.50;;;;;;;17.87;80.69;101618.16;5092296;28;20063;-47
2022/05/19 00:08:15;;;;;;;103.63;53.83;;;;;;;17.84;81.14;101612.91;5093081;28;20073;-44
2022/05/19 00:10:41;;;;;;;108.82;52.55;;;;;;;17.77;81.04;101609.34;5092558;28;20024;-47
2022/05/19 00:13:06;;;;;;;110.45;53.80;;;;;;;17.72;81.39;101608.41;5092252;28;20107;-44
2022/05/19 00:15:31;;;;;;;110.03;52.38;;;;;;;17.71;81.31;101606.66;5092611;28;20036;-47
2022/05/19 00:17:57;;;;;;;105.40;52.95;;;;;;;17.66;81.55;101603.13;5092553;28;20248;-46
2022/05/19 00:20:22;;;;;;;101.90;51.70;;;;;;;17.59;81.66;101602.19;5092204;28;20039;-47
2022/05/19 00:22:47;;;;;;;114.70;52.63;;;;;;;17.59;82.38;101599.56;5092594;28;20051;-44
2022/05/19 00:25:13;;;;;;;101.90;53.45;;;;;;;17.57;82.04;101595.19;5091889;28;20036;-46
2022/05/19 00:27:38;;;;;;;106.10;53.10;;;;;;;17.54;82.39;101595.16;5092567;28;20020;-46
2022/05/19 00:30:04;;;;;;;98.10;51.08;;;;;;;17.56;82.70;101583.03;5096049;28;20153;-47
2022/05/19 00:32:29;;;;;;;99.88;51.08;;;;;;;17.49;82.41;101586.41;5095725;28;20039;-43
2022/05/19 00:34:55;;;;;;;103.32;56.40;;;;;;;17.47;82.85;101583.78;5096779;28;20467;-44
2022/05/19 00:37:20;;;;;;;103.75;52.92;;;;;;;17.41;82.75;101581.97;5096817;28;20024;-45
2022/05/19 00:39:46;;;;;;;110.95;55.63;;;;;;;17.41;83.23;101579.38;5095722;28;20073;-46
2022/05/19 00:45:01;;;;;;;108.00;54.55;;;;;;;17.27;83.80;101581.81;5096708;28;20055;-46
2022/05/19 00:47:32;;;;;;;107.18;54.95;;;;;;;17.16;83.63;101575.56;5095906;28;20383;-43
2022/05/19 00:49:57;;;;;;;102.50;53.85;;;;;;;17.10;84.14;101575.47;5096328;28;20028;-44
2022/05/19 00:52:27;;;;;;;104.95;54.20;;;;;;;17.04;83.86;101570.16;5096098;28;20052;-45
2022/05/19 00:55:07;;;;;;;106.70;55.10;;;;;;;16.95;83.84;101568.31;5095466;28;20040;-46
2022/05/19 00:57:37;;;;;;;109.55;56.70;;;;;;;16.86;84.60;101566.44;5096402;28;20024;-44
2022/05/19 01:00:13;;;;;;;110.70;56.38;;;;;;;16.80;84.86;101568.94;5095957;28;20360;-45
2022/05/19 01:02:42;;;;;;;113.50;56.40;;;;;;;16.75;85.91;101563.63;5095699;28;20031;-46
2022/05/19 01:05:13;;;;;;;115.57;57.42;;;;;;;16.68;85.90;101556.59;5095984;28;20032;-47
2022/05/19 01:07:56;;;;;;;118.25;58.88;;;;;;;16.65;86.21;101555.69;5095285;28;20043;-46
2022/05/19 01:10:21;;;;;;;109.97;59.22;;;;;;;16.61;86.70;101550.41;5096312;28;20032;-46
2022/05/19 01:12:49;;;;;;;116.88;57.92;;;;;;;16.53;86.46;101549.41;5095599;28;20055;-46
2022/05/19 01:15:14;;;;;;;;;;;;;;;16.64;82.40;101546.97;5095587;28;20386;-47
2022/05/19 01:17:40;;;;;;;118.50;57.53;;;;;;;16.50;86.75;101541.56;5095698;28;20358;-43
2022/05/19 01:20:12;;;;;;;109.50;57.75;;;;;;;16.43;86.97;101532.75;5096094;28;20032;-45
2022/05/19 01:22:50;;;;;;;125.00;60.20;;;;;;;16.44;87.65;101537.13;5094927;28;20032;-44
2022/05/19 01:25:22;;;;;;;;;;;;;;;16.49;83.31;101531.13;5096379;28;20036;-44
2022/05/19 01:27:48;;;;;;;117.18;59.67;;;;;;;16.44;87.90;101526.72;5095362;28;19916;-47
2022/05/19 01:30:14;;;;;;;125.63;62.00;;;;;;;16.44;88.58;101525.84;5095019;28;20016;-47
2022/05/19 01:32:39;;;;;;;136.63;66.47;;;;;;;16.50;88.90;101519.88;5095483;28;20024;-47
2022/05/19 01:35:05;;;;;;;130.30;64.00;;;;;;;16.54;88.71;101511.25;5095245;28;20028;-47
2022/05/19 01:37:31;;;;;;;136.10;67.82;;;;;;;16.60;88.72;101511.34;5094698;28;20103;-45
2022/05/19 01:40:08;;;;;;;133.73;66.22;;;;;;;16.64;88.89;101507.94;5095008;28;20968;-46
2022/05/19 01:43:00;;;;;;;147.55;67.35;;;;;;;16.65;87.78;101496.69;5094597;28;20023;-47
2022/05/19 01:45:42;;;;;;;133.07;67.32;;;;;;;16.69;88.54;101490.66;5095625;28;20101;-46
2022/05/19 01:48:10;;;;;;;134.25;66.50;;;;;;;16.71;88.99;101504.59;5095368;28;20506;-47
2022/05/19 01:50:39;;;;;;;123.32;64.75;;;;;;;16.77;88.85;101506.38;5094412;28;20024;-46
2022/05/19 01:53:22;;;;;;;130.15;64.38;;;;;;;16.78;88.65;101500.34;5095032;28;20487;-46
2022/05/19 01:56:11;;;;;;;135.65;66.43;;;;;;;16.81;88.78;101507.31;5094896;28;20035;-47
2022/05/19 01:58:40;;;;;;;141.20;65.43;;;;;;;16.83;88.51;101497.81;5094706;28;20028;-47
2022/05/19 02:01:08;;;;;;;134.23;65.47;;;;;;;16.83;88.89;101497.81;5095042;28;20024;-45
2022/05/19 02:04:07;;;;;;;130.65;63.58;;;;;;;16.81;87.71;101497.78;5094160;28;20020;-47
2022/05/19 02:06:48;;;;;;;136.65;66.80;;;;;;;16.82;88.22;101496.06;5095052;28;20097;-46
2022/05/19 02:09:25;;;;;;;138.25;67.63;;;;;;;16.82;88.39;101490.84;5095047;28;20017;-45
2022/05/19 02:11:56;;;;;;;134.48;67.70;;;;;;;16.80;89.09;101485.63;5093695;28;20032;-44
2022/05/19 02:14:35;;;;;;;137.00;69.20;;;;;;;16.82;88.64;101489.09;5094972;28;20419;-48
2022/05/19 02:17:04;;;;;;;134.00;70.22;;;;;;;16.81;89.14;101483.88;5094602;28;20039;-44
2022/05/19 02:19:38;;;;;;;143.32;71.15;;;;;;;16.81;89.05;101486.50;5094208;28;20028;-43
2022/05/19 02:22:06;;;;;;;149.55;68.72;;;;;;;16.82;89.19;101501.25;5094702;28;20052;-44
2022/05/19 02:24:37;;;;;;;126.00;66.60;;;;;;;16.81;89.40;101495.19;5094220;28;20074;-47
2022/05/19 02:27:50;;;;;;;135.05;67.00;;;;;;;16.83;87.95;101497.81;5094743;28;20035;-46
2022/05/19 02:30:19;;;;;;;138.95;69.10;;;;;;;16.81;89.37;101494.31;5072055;28;20157;-43
2022/05/19 02:32:45;;;;;;;129.48;66.70;;;;;;;16.79;89.55;101492.53;5070986;28;20036;-46
2022/05/19 02:35:11;;;;;;;134.93;69.75;;;;;;;16.82;89.42;101499.53;5084136;28;20036;-46
2022/05/19 02:37:36;;;;;;;128.68;66.40;;;;;;;16.81;89.51;101490.00;5094463;28;20035;-44
2022/05/19 02:40:03;;;;;;;123.90;62.80;;;;;;;16.79;89.10;101494.28;5093774;28;20024;-45
2022/05/19 02:42:29;;;;;;;126.10;63.93;;;;;;;16.78;89.14;101493.41;5094416;28;20024;-45
2022/05/19 02:44:54;;;;;;;116.65;62.53;;;;;;;16.82;89.37;101502.13;5093836;28;20031;-46
2022/05/19 02:47:19;;;;;;;124.78;62.88;;;;;;;16.83;88.98;101503.03;5093656;28;20028;-46
2022/05/19 02:49:44;;;;;;;116.70;61.15;;;;;;;16.90;89.07;101504.84;5094028;28;20019;-47
2022/05/19 02:52:10;;;;;;;124.25;59.35;;;;;;;16.98;89.06;101503.28;5092668;28;20051;-47
2022/05/19 02:54:35;;;;;;;113.78;58.80;;;;;;;17.06;88.53;101511.19;5093406;28;20028;-44
2022/05/19 02:57:00;;;;;;;103.20;57.17;;;;;;;17.13;87.80;101514.75;5093772;28;20050;-47
2022/05/19 02:59:26;;;;;;;110.32;57.50;;;;;;;17.20;87.51;101519.19;5093840;28;20024;-46
2022/05/19 03:01:51;;;;;;;112.88;55.45;;;;;;;17.23;87.47;101521.81;5092949;28;20024;-46
2022/05/19 03:04:16;;;;;;;103.88;55.72;;;;;;;17.29;87.12;101534.94;5094061;28;20024;-46
2022/05/19 03:06:42;;;;;;;116.40;58.53;;;;;;;17.26;88.04;101624.34;5093504;28;20383;-47
2022/05/19 03:09:08;;;;;;;117.25;60.47;;;;;;;17.29;87.94;101636.53;5093247;28;20028;-46
2022/05/19 03:11:33;;;;;;;120.88;63.00;;;;;;;17.33;88.20;101656.56;5093647;28;20106;-47
2022/05/19 03:13:59;;;;;;;120.43;63.03;;;;;;;17.40;86.67;101626.25;5092853;28;20536;-47
2022/05/19 03:16:24;;;;;;;92.57;51.00;;;;;;;17.61;83.85;101669.97;5093560;28;20031;-47
2022/05/19 03:18:49;;;;;;;95.22;46.88;;;;;;;17.88;81.94;101665.97;5093228;28;20024;-48
2022/05/19 03:21:15;;;;;;;92.60;49.33;;;;;;;18.10;81.28;101659.31;5092914;28;20028;-47
2022/05/19 03:23:40;;;;;;;88.57;47.45;;;;;;;18.23;80.29;101647.28;5093323;28;20043;-45
2022/05/19 03:26:06;;;;;;;85.93;45.35;;;;;;;18.27;80.52;101664.75;5093677;28;20387;-43
2022/05/19 03:28:31;;;;;;;79.78;45.95;;;;;;;18.32;80.20;101676.09;5092765;28;20057;-46
2022/05/19 03:30:56;;;;;;;80.20;46.88;;;;;;;18.37;80.05;101655.25;5093247;28;20383;-46
2022/05/19 03:33:22;;;;;;;91.53;46.55;;;;;;;18.39;79.74;101654.41;5093164;28;20486;-48
2022/05/19 03:35:56;;;;;;;90.07;47.92;;;;;;;18.45;79.50;101663.16;5092490;28;20035;-47
2022/05/19 03:38:21;;;;;;;81.53;48.05;;;;;;;18.48;79.40;101668.44;5093416;28;20036;-42
2022/05/19 03:40:47;;;;;;;81.82;46.95;;;;;;;18.41;80.35;101663.13;5093071;28;20020;-46
2022/05/19 03:43:12;;;;;;;77.60;47.13;;;;;;;18.37;80.39;101661.38;5092537;28;20024;-44
2022/05/19 03:45:38;;;;;;;84.28;48.03;;;;;;;18.36;80.40;101663.94;5092907;28;20024;-46
2022/05/19 03:48:03;;;;;;;79.82;47.75;;;;;;;18.29;80.78;101676.03;5093061;28;20032;-45
2022/05/19 03:50:29;;;;;;;85.72;47.65;;;;;;;18.26;81.40;101676.03;5092679;28;20122;-45
2022/05/19 03:52:54;;;;;;;87.63;50.25;;;;;;;18.24;81.76;101664.69;5092564;28;20064;-48
2022/05/19 03:55:19;;;;;;;97.88;51.03;;;;;;;18.20;82.02;101663.78;5092982;28;20425;-43
2022/05/19 03:57:46;;;;;;;90.57;47.22;;;;;;;18.12;83.18;101659.34;5092301;28;20035;-42
2022/05/19 04:00:12;;;;;;;91.05;52.33;;;;;;;18.15;84.18;101664.59;5092944;28;20077;-43
2022/05/19 04:02:38;;;;;;;88.45;51.40;;;;;;;18.13;84.02;101654.16;5092335;28;20371;-43
2022/05/19 04:05:05;;;;;;;92.55;50.28;;;;;;;18.10;84.26;101673.25;5092072;28;20467;-42
2022/05/19 04:07:30;;;;;;;99.03;51.20;;;;;;;18.09;85.18;101686.28;5093068;28;20030;-42
2022/05/19 04:09:56;;;;;;;90.25;52.75;;;;;;;18.05;85.74;101685.34;5092632;28;20103;-46
2022/05/19 04:12:22;;;;;;;87.70;49.40;;;;;;;18.00;85.09;101687.03;5092341;28;20043;-43
2022/05/19 04:14:47;;;;;;;87.93;48.83;;;;;;;18.02;85.65;101690.50;5092654;28;20024;-43
2022/05/19 04:17:13;;;;;;;82.28;48.90;;;;;;;17.96;85.79;101687.84;5092130;28;20141;-42
2022/05/19 04:19:38;;;;;;;90.45;49.70;;;;;;;17.98;85.46;101685.25;5092745;28;20039;-43
2022/05/19 04:22:03;;;;;;;89.80;50.75;;;;;;;18.00;85.15;101681.81;5092894;28;20036;-43
2022/05/19 04:24:29;;;;;;;90.20;50.13;;;;;;;17.99;86.41;101685.28;5092143;28;20032;-44
2022/05/19 04:26:54;;;;;;;85.47;48.25;;;;;;;17.96;86.25;101685.25;5092561;28;20129;-44
2022/05/19 04:29:19;;;;;;;83.50;50.60;;;;;;;17.91;86.83;101692.09;5092710;28;20490;-42
2022/05/19 04:31:45;;;;;;;85.43;48.65;;;;;;;17.88;86.89;101686.84;5091539;28;20028;-43
2022/05/19 04:34:10;;;;;;;83.35;49.58;;;;;;;17.85;87.12;101692.03;5092827;28;20047;-47
2022/05/19 04:36:35;;;;;;;91.50;50.83;;;;;;;17.82;87.61;101692.84;5092626;28;20056;-42
2022/05/19 04:39:01;;;;;;;97.32;53.03;;;;;;;17.78;87.96;101668.47;5091837;28;20032;-41
2022/05/19 04:41:26;;;;;;;93.25;53.13;;;;;;;17.81;88.27;101680.66;5092738;28;20027;-42
2022/05/19 04:43:52;;;;;;;84.60;53.30;;;;;;;17.81;88.20;101669.38;5092404;28;20043;-42
2022/05/19 04:46:18;;;;;;;96.30;53.78;;;;;;;17.82;88.16;101671.09;5091759;28;20028;-45
2022/05/19 04:48:43;;;;;;;86.10;53.53;;;;;;;17.83;88.06;101672.84;5092486;28;20044;-43
2022/05/19 04:51:08;;;;;;;89.25;53.20;;;;;;;17.82;88.50;101679.81;5092405;28;20413;-48
2022/05/19 04:53:33;;;;;;;90.40;51.88;;;;;;;17.84;88.17;101674.63;5091643;28;20097;-42
2022/05/19 04:55:59;;;;;;;85.45;50.25;;;;;;;17.88;87.63;101679.00;5092439;28;20039;-42
2022/05/19 04:58:24;;;;;;;81.53;47.60;;;;;;;17.91;87.13;101672.09;5092209;28;20024;-45
2022/05/19 05:00:51;;;;;;;78.22;45.38;;;;;;;17.92;87.14;101662.53;5091493;28;20028;-42
2022/05/19 05:03:16;;;;;;;78.80;45.70;;;;;;;17.94;86.96;101666.09;5092657;28;20038;-46
2022/05/19 05:05:42;;;;;;;79.15;44.95;;;;;;;17.95;87.16;101673.06;5092075;28;20020;-42
2022/05/19 05:08:07;;;;;;;84.88;45.95;;;;;;;17.98;87.46;101667.88;5091959;28;20012;-44
2022/05/19 05:10:33;;;;;;;84.45;45.80;;;;;;;18.02;87.16;101663.56;5092310;28;20024;-42
2022/05/19 05:13:07;;;;;;;68.55;38.85;;;;;;;18.06;86.55;101676.69;5091871;28;20050;-46
2022/05/19 05:15:33;;;;;;;61.65;35.95;;;;;;;18.06;85.91;101671.47;5092363;28;20432;-46
2022/05/19 05:17:59;;;;;;;59.35;36.45;;;;;;;18.08;85.98;101671.47;5095855;28;20538;-44
2022/05/19 05:20:24;;;;;;;57.75;35.25;;;;;;;18.07;86.26;101665.38;5095697;28;20157;-42
2022/05/19 05:22:50;;;;;;;55.75;31.40;;;;;;;18.07;85.74;101652.31;5095284;28;20020;-45
2022/05/19 05:25:15;;;;;;;56.38;31.70;;;;;;;18.04;85.83;101656.66;5095681;28;20031;-47
2022/05/19 05:27:41;;;;;;;46.83;28.65;;;;;;;18.00;86.07;101652.22;5094809;28;20113;-42
2022/05/19 05:30:08;;;;;;;55.47;30.15;;;;;;;17.92;87.88;101636.47;5095614;28;20023;-42
2022/05/19 05:32:34;;;;;;;55.55;30.33;;;;;;;17.84;88.58;101606.81;5095365;28;20035;-42
2022/05/19 05:34:59;;;;;;;45.70;28.52;;;;;;;17.82;88.96;101587.66;5094819;28;20020;-45
2022/05/19 05:37:25;;;;;;;52.10;29.00;;;;;;;17.84;91.26;101606.81;5095711;28;20043;-47
2022/05/19 05:39:50;;;;;;;40.08;23.98;;;;;;;17.86;89.80;101598.16;5095297;28;20020;-45
2022/05/19 05:42:15;;;;;;;37.67;23.02;;;;;;;17.87;90.46;101593.81;5094682;28;20364;-44
2022/05/19 05:44:41;;;;;;;34.80;21.92;;;;;;;17.89;89.44;101564.28;5095071;28;20028;-46
2022/05/19 05:47:06;;;;;;;36.10;22.60;;;;;;;17.94;89.75;101546.13;5095295;28;20030;-43
2022/05/19 05:49:31;;;;;;;35.78;21.17;;;;;;;17.94;89.73;101543.50;5094750;28;20024;-43
2022/05/19 05:51:56;;;;;;;33.90;20.27;;;;;;;17.87;89.23;101554.69;5094809;28;20032;-42
2022/05/19 05:54:22;;;;;;;30.23;20.75;;;;;;;17.83;90.54;101532.06;5095110;28;20032;-43
2022/05/19 05:56:47;;;;;;;31.95;20.27;;;;;;;17.80;90.68;101560.72;5094462;28;20024;-43
2022/05/19 05:59:12;;;;;;;33.30;19.60;;;;;;;17.78;89.59;101579.81;5095210;28;20024;-42
2022/05/19 06:01:38;;;;;;;41.50;21.50;;;;;;;17.81;89.68;101575.50;5094615;28;20039;-45
2022/05/19 06:04:03;;;;;;;42.58;22.60;;;;;;;17.86;89.27;101563.41;5094722;28;20479;-44
2022/05/19 06:06:28;;;;;;;44.08;24.55;;;;;;;17.86;88.00;101553.84;5095113;28;20109;-46
2022/05/19 06:08:55;;;;;;;58.58;23.80;;;;;;;17.88;88.49;101552.13;5094543;28;20028;-42
2022/05/19 06:11:20;;;;;;;40.40;24.10;;;;;;;17.93;88.13;101539.16;5094310;28;20402;-42
2022/05/19 06:13:45;;;;;;;45.08;25.55;;;;;;;17.94;89.00;101552.19;5094371;28;20024;-43
2022/05/19 06:16:11;;;;;;;47.38;27.83;;;;;;;18.00;87.26;101571.38;5094700;28;20024;-42
2022/05/19 06:18:37;;;;;;;50.30;27.63;;;;;;;18.05;86.31;101565.38;5094212;28;20103;-41
2022/05/19 06:21:04;;;;;;;53.03;29.40;;;;;;;18.10;86.95;101568.91;5094813;28;20020;-42
2022/05/19 06:23:29;;;;;;;56.07;30.03;;;;;;;18.20;87.00;101569.84;5094327;28;20552;-43
2022/05/19 06:25:54;;;;;;;53.92;33.35;;;;;;;18.26;87.13;101561.22;5094026;28;20171;-43
2022/05/19 06:28:20;;;;;;;58.05;34.10;;;;;;;18.35;86.29;101563.91;5094338;28;20559;-42
2022/05/19 06:30:45;;;;;;;60.78;36.67;;;;;;;18.40;85.26;101567.44;5093725;28;20024;-42
2022/05/19 06:33:12;;;;;;;61.13;36.40;;;;;;;18.49;85.35;101568.34;5094271;28;20111;-45
2022/05/19 06:35:38;;;;;;;63.97;36.08;;;;;;;18.52;84.65;101571.00;5094168;28;20028;-41
2022/05/19 06:38:04;;;;;;;58.35;36.53;;;;;;;18.59;85.02;101562.34;5093631;28;20024;-44
2022/05/19 06:40:30;;;;;;;61.80;36.65;;;;;;;18.80;84.32;101564.25;5094228;28;20390;-42
2022/05/19 06:42:56;;;;;;;58.20;35.13;;;;;;;18.95;83.71;101560.91;5094067;28;20110;-41
2022/05/19 06:45:27;;;;;;;60.05;36.95;;;;;;;19.00;83.07;101567.03;5093598;28;20030;-42
2022/05/19 06:47:53;;;;;;;63.75;40.35;;;;;;;19.09;83.68;101576.66;5093764;28;20028;-44
2022/05/19 06:50:20;;;;;;;63.05;38.65;;;;;;;19.13;83.64;101564.50;5093948;28;20364;-41
2022/05/19 06:53:01;;;;;;;68.75;39.05;;;;;;;19.20;83.44;101566.28;5093074;28;20043;-42
2022/05/19 06:55:28;;;;;;;59.83;38.45;;;;;;;19.25;82.73;101559.34;5094066;28;20089;-41
2022/05/19 06:57:53;;;;;;;60.78;37.28;;;;;;;19.34;82.09;101548.94;5093630;28;20066;-42
2022/05/19 07:00:21;;;;;;;67.18;39.58;;;;;;;19.45;84.12;101546.34;5093457;28;20024;-43
2022/05/19 07:02:49;;;;;;;64.00;38.13;;;;;;;19.53;84.35;101554.22;5093635;28;20036;-42
2022/05/19 07:05:17;;;;;;;64.22;37.50;;;;;;;19.62;82.82;101567.31;5093625;28;20020;-42
2022/05/19 07:07:43;;;;;;;61.42;36.88;;;;;;;19.68;81.05;101554.28;5092904;28;20035;-43
2022/05/19 07:10:09;;;;;;;58.90;37.65;;;;;;;19.71;80.47;101551.66;5093822;28;20036;-44
2022/05/19 07:12:37;;;;;;;58.03;37.95;;;;;;;19.73;80.13;101551.69;5093432;28;20031;-43
2022/05/19 07:15:03;;;;;;;60.35;37.70;;;;;;;19.69;79.80;101550.78;5093232;28;20028;-43
2022/05/19 07:17:28;;;;;;;63.63;40.35;;;;;;;19.70;80.55;101530.72;5093480;28;20486;-42
2022/05/19 07:22:37;;;;;;;65.80;39.28;;;;;;;19.67;80.48;101523.75;5093554;28;20595;-43
2022/05/19 07:25:08;;;;;;;62.03;37.33;;;;;;;19.64;80.04;101521.16;5093628;28;20048;-43
2022/05/19 07:27:36;;;;;;;60.90;38.45;;;;;;;19.59;80.27;101528.09;5092751;28;20035;-43
2022/05/19 07:30:01;;;;;;;64.32;40.05;;;;;;;19.60;81.36;101535.09;5093270;28;20065;-43
2022/05/19 07:32:27;;;;;;;59.95;38.22;;;;;;;19.61;80.81;101523.72;5093072;28;20027;-42
2022/05/19 07:34:54;;;;;;;53.92;35.85;;;;;;;19.66;79.52;101523.75;5092559;28;20034;-43
2022/05/19 07:37:20;;;;;;;54.13;34.67;;;;;;;19.66;78.84;101514.16;5093564;28;20032;-44
2022/05/19 07:39:45;;;;;;;54.53;34.00;;;;;;;19.76;78.62;101515.06;5092288;28;20040;-43
2022/05/19 07:42:10;;;;;;;55.28;34.10;;;;;;;19.84;77.95;101522.97;5092765;28;20103;-45
2022/05/19 07:44:36;;;;;;;54.28;33.72;;;;;;;19.95;78.79;101531.72;5093113;28;20039;-43
2022/05/19 07:47:01;;;;;;;55.67;34.22;;;;;;;20.13;77.85;101540.44;5092689;28;20109;-42
2022/05/19 07:49:26;;;;;;;49.35;33.08;;;;;;;20.34;78.65;101545.69;5092394;28;20069;-46
2022/05/19 07:51:52;;;;;;;50.47;31.98;;;;;;;20.47;75.03;101550.94;5092906;28;20032;-43
2022/05/19 07:54:21;;;;;;;54.20;33.53;;;;;;;20.62;76.49;101556.16;5093000;28;20028;-43
2022/05/19 07:56:48;;;;;;;57.53;34.33;;;;;;;20.66;75.49;101563.13;5092190;28;20401;-43
2022/05/19 07:59:15;;;;;;;61.80;36.83;;;;;;;20.74;75.50;101563.16;5093159;28;20020;-45
2022/05/19 08:01:42;;;;;;;65.30;38.38;;;;;;;20.85;74.24;101553.56;5092471;28;20082;-47
2022/05/19 08:04:09;;;;;;;67.55;40.00;;;;;;;20.92;73.52;101554.41;5092399;28;20107;-44
2022/05/19 08:06:35;;;;;;;59.43;40.07;;;;;;;21.02;73.37;101550.88;5093035;28;20025;-42
2022/05/19 08:10:20;;;;;;;73.85;38.05;;;;;;;21.07;72.26;101537.78;5092677;28;20016;-43
2022/05/19 08:11:46;;;;;;;62.75;38.97;;;;;;;21.24;72.86;101542.06;5092422;28;20028;-42
2022/05/19 08:16:56;;;;;;;54.05;34.53;;;;;;;21.60;69.60;101542.81;5092457;28;20047;-44
2022/05/19 08:19:21;;;;;;;58.53;34.17;;;;;;;21.71;69.32;101539.25;5092760;28;20053;-44
2022/05/19 08:21:47;;;;;;;55.58;33.97;;;;;;;21.87;69.70;101534.78;5092251;28;20187;-44
2022/05/19 08:24:12;;;;;;;50.87;29.63;;;;;;;22.09;69.13;101539.91;5092338;28;20027;-45
2022/05/19 08:26:37;;;;;;;48.13;29.47;;;;;;;22.11;64.51;101534.63;5092609;28;20285;-43
2022/05/19 08:29:03;;;;;;;48.15;29.90;;;;;;;22.22;66.35;101530.19;5092366;28;20266;-46
2022/05/19 08:31:30;;;;;;;51.75;29.98;;;;;;;22.40;65.89;101538.81;5092409;28;20480;-43
2022/05/19 08:33:58;;;;;;;46.15;29.27;;;;;;;22.47;64.02;101540.50;5092684;28;20032;-43
2022/05/19 08:36:25;;;;;;;52.72;28.98;;;;;;;22.61;65.23;101546.50;5092477;28;20387;-43
2022/05/19 08:38:51;;;;;;;42.70;25.75;;;;;;;22.75;62.84;101548.09;5091939;28;20028;-45
2022/05/19 08:41:28;;;;;;;39.45;25.25;;;;;;;22.88;63.33;101544.50;5092520;28;20016;-43
2022/05/19 08:44:19;;;;;;;47.13;26.60;;;;;;;23.05;62.38;101535.53;5092058;28;20432;-45
2022/05/19 08:46:49;;;;;;;52.95;26.67;;;;;;;23.31;62.31;101530.84;5091898;28;20028;-43
2022/05/19 08:49:20;;;;;;;37.88;23.63;;;;;;;23.46;59.63;101536.81;5092582;28;20039;-43
2022/05/19 08:52:01;;;;;;;41.95;23.85;;;;;;;23.68;60.37;101530.38;5093896;28;20816;-42
2022/05/19 08:54:27;;;;;;;33.92;20.33;;;;;;;23.73;57.95;101525.06;5096513;28;20031;-46
2022/05/19 08:57:03;;;;;;;35.83;18.80;;;;;;;23.84;59.04;101527.50;5095938;28;20023;-47
2022/05/19 08:59:41;;;;;;;36.58;19.73;;;;;;;23.93;56.75;101510.75;5095740;28;20024;-46
2022/05/19 09:02:09;;;;;;;;;;;;;;;24.04;57.78;101518.47;5096680;28;20071;-44
2022/05/19 09:05:05;;;;;;;30.73;18.15;;;;;;;24.07;56.54;101519.28;5095747;28;20314;-42
2022/05/19 09:07:58;;;;;;;27.05;17.15;;;;;;;24.25;57.41;101518.13;5095657;28;20028;-43
2022/05/19 09:10:54;;;;;;;28.27;15.60;;;;;;;24.39;56.30;101514.38;5096198;28;20032;-43
2022/05/19 09:13:26;;;;;;;30.08;15.30;;;;;;;24.70;55.39;101514.72;5095709;28;20126;-45
2022/05/19 09:15:52;;;;;;;31.13;16.92;;;;;;;24.92;52.66;101504.63;5095796;28;20032;-45
2022/05/19 09:18:20;;;;;;;30.00;16.48;;;;;;;25.26;52.91;101503.94;5095569;28;20028;-43
2022/05/19 09:20:52;;;;;;;28.55;15.55;;;;;;;25.60;53.39;101504.97;5095184;28;20027;-44
2022/05/19 09:23:17;;;;;;;28.02;16.25;;;;;;;25.66;50.64;101504.84;5095694;28;20042;-43
2022/05/19 09:25:47;;;;;;;29.20;14.38;;;;;;;25.87;51.29;101506.09;5095441;28;20028;-44
2022/05/19 09:28:13;;;;;;;27.38;15.82;;;;;;;25.66;49.62;101501.34;5095377;28;20017;-44
2022/05/19 09:30:48;;;;;;;33.15;16.63;;;;;;;25.64;51.18;101504.88;5095399;28;20031;-45
2022/05/19 09:33:32;;;;;;;30.30;15.40;;;;;;;25.75;50.52;101503.78;5095330;28;20480;-43
2022/05/19 09:36:01;;;;;;;28.75;16.63;;;;;;;25.59;50.87;101501.47;5095109;28;20042;-42
2022/05/19 09:38:35;;;;;;;31.17;15.32;;;;;;;25.84;51.28;101506.19;5095637;28;20033;-43
2022/05/19 09:41:07;;;;;;;36.00;14.80;;;;;;;25.87;50.32;101503.47;5094526;28;20048;-45
2022/05/19 09:43:36;;;;;;;37.30;16.50;;;;;;;25.74;49.99;101509.94;5095271;28;20089;-43
2022/05/19 09:46:13;;;;;;;28.50;16.30;;;;;;;25.68;50.20;101507.44;5095016;28;20059;-45
2022/05/19 09:49:03;;;;;;;34.85;16.08;;;;;;;25.86;52.04;101509.66;5094870;28;20032;-42
2022/05/19 09:51:40;;;;;;;25.80;16.23;;;;;;;25.88;50.61;101507.84;5092473;28;20040;-43
2022/05/19 09:54:05;;;;;;;25.55;14.13;;;;;;;25.86;50.32;101503.50;5095119;28;20043;-42
2022/05/19 09:56:45;;;;;;;32.45;14.18;;;;;;;25.93;52.13;101505.09;5094473;28;20028;-43
2022/05/19 09:59:32;;;;;;;28.77;13.27;;;;;;;25.87;51.36;101492.91;5095175;28;20024;-43
2022/05/19 10:02:18;;;;;;;26.92;14.05;;;;;;;25.99;51.05;101488.22;5093762;28;20048;-43
2022/05/19 10:04:53;;;;;;;23.20;13.18;;;;;;;26.06;49.85;101474.00;5094642;28;20467;-44
2022/05/19 10:07:36;;;;;;;24.02;13.40;;;;;;;26.21;49.59;101484.19;5094997;28;20032;-43
2022/05/19 10:10:15;;;;;;;23.45;13.57;;;;;;;26.38;49.28;101474.94;5094393;28;20020;-42
2022/05/19 10:12:47;;;;;;;20.58;12.15;;;;;;;26.91;49.12;101464.66;5094616;28;20105;-43
2022/05/19 10:15:16;;;;;;;25.48;14.13;;;;;;;27.24;47.26;101448.72;5094545;28;20031;-43
2022/05/19 10:17:47;;;;;;;21.70;13.15;;;;;;;27.59;47.85;101436.16;5094143;28;20020;-43
2022/05/19 10:20:22;;;;;;;22.33;12.52;;;;;;;28.21;46.29;101435.88;5094897;28;20024;-43
2022/05/19 10:23:15;;;;;;;19.27;11.43;;;;;;;28.70;46.81;101420.03;5094216;28;20017;-43
2022/05/19 10:26:26;;;;;;;27.70;10.88;;;;;;;29.17;43.72;101424.44;5094259;28;20035;-44
2022/05/19 10:32:16;;;;;;;20.98;10.23;;;;;;;30.01;38.23;101441.41;5093695;28;20030;-43
2022/05/19 10:35:01;;;;;;;19.27;10.15;;;;;;;30.07;38.34;101434.94;5094071;28;20036;-44
2022/05/19 10:37:56;;;;;;;20.35;9.98;;;;;;;29.47;40.19;101419.69;5093963;28;20082;-42
2022/05/19 10:40:48;;;;;;;19.00;10.02;;;;;;;29.97;39.58;101426.50;5094371;28;20023;-46
2022/05/19 10:43:45;;;;;;;21.33;9.38;;;;;;;30.34;38.84;101432.88;5090779;28;20039;-46
2022/05/19 10:46:15;;;;;;;19.02;9.70;;;;;;;29.88;37.23;101442.84;5093692;28;20406;-45
2022/05/19 10:49:06;;;;;;;22.65;10.32;;;;;;;29.56;39.62;101447.69;5093806;28;20028;-44
2022/05/19 10:51:58;;;;;;;20.15;9.80;;;;;;;28.97;39.69;101434.00;5093440;28;20487;-46
2022/05/19 10:54:39;;;;;;;20.63;9.85;;;;;;;28.30;40.05;101421.44;5093869;28;20491;-44
2022/05/19 10:57:18;;;;;;;15.52;8.80;;;;;;;28.14;41.81;101427.28;5093880;28;20028;-49
2022/05/19 10:59:56;;;;;;;19.17;8.55;;;;;;;28.34;42.56;101429.25;5093300;28;20031;-42
2022/05/19 11:02:49;;;;;;;20.38;9.90;;;;;;;28.45;42.39;101431.50;5094066;28;20028;-46
2022/05/19 11:05:20;;;;;;;19.88;9.18;;;;;;;28.12;41.58;101436.22;5093102;28;20028;-43
2022/05/19 11:08:04;;;;;;;19.95;9.20;;;;;;;28.06;42.75;101430.22;5093744;28;20032;-46
2022/05/19 11:10:53;;;;;;;14.70;9.27;;;;;;;28.08;42.10;101428.38;5093679;28;20043;-44
2022/05/19 11:13:51;;;;;;;21.98;9.50;;;;;;;27.86;42.45;101425.59;5092406;28;20039;-43
2022/05/19 11:16:45;;;;;;;27.92;9.32;;;;;;;27.56;42.57;101423.00;5093953;28;20024;-43
2022/05/19 11:19:20;;;;;;;15.50;9.00;;;;;;;27.15;43.07;101421.66;5092952;28;20094;-43
2022/05/19 11:21:53;;;;;;;18.20;9.68;;;;;;;26.78;43.90;101418.34;5093330;28;20375;-43
2022/05/19 11:24:29;;;;;;;20.67;9.40;;;;;;;26.49;44.43;101422.63;5093480;28;20101;-44
2022/05/19 11:27:23;;;;;;;27.13;9.73;;;;;;;26.26;45.98;101418.88;5092975;28;20024;-43
2022/05/19 11:29:54;;;;;;;21.08;9.45;;;;;;;26.04;46.06;101433.50;5092833;28;20032;-41
2022/05/19 11:32:23;;;;;;;26.65;10.20;;;;;;;25.87;47.66;101452.44;5093016;28;20474;-43
2022/05/19 11:34:55;;;;;;;21.20;9.25;;;;;;;25.71;49.88;101459.88;5092816;28;20024;-44
2022/05/19 11:37:31;;;;;;;23.92;10.07;;;;;;;25.54;49.85;101455.84;5093722;28;20032;-45